Time;durP1;ratioP1;P1;durP2;ratioP2;P2;SDS_P1;SDS_P2;PMS_P1;PMS_P2;Temp;Humidity;BMP_temperature;BMP_pressure;BME280_temperature;BME280_humidity;BME280_pressure;Samples;Min_cycle;Max_cycle;Signal;HPM_P1;HPM_P2
2023/06/09 07:58:42;;;;;;;69.00;29.10;;;;;;;;;;5064982;27;1970043;-75
2023/06/09 08:01:08;;;;;;;20.20;17.00;;;;;;;;;;5111811;27;20451;-76
2023/06/09 08:03:35;;;;;;;15.27;13.88;;;;;;;;;;5131000;27;20424;-76
2023/06/09 08:06:02;;;;;;;12.98;11.98;;;;;;;;;;5112473;27;20437;-76
2023/06/09 08:08:29;;;;;;;12.60;11.70;;;;;;;;;;5132480;27;21039;-76
2023/06/09 08:10:55;;;;;;;10.15;9.55;;;;;;;;;;5132174;27;20424;-76
2023/06/09 08:13:21;;;;;;;9.32;8.82;;;;;;;;;;5130939;27;20445;-76
2023/06/09 08:15:47;;;;;;;;;;;;;;;;;;5133336;27;20932;-75
2023/06/09 08:18:13;;;;;;;;;;;;;;;;;;5113369;27;19926;-76
2023/06/09 08:20:40;;;;;;;;;;;;;;;;;;5134051;27;19971;-75
2023/06/09 08:23:07;;;;;;;;;;;;;;;;;;5131815;27;20010;-76
2023/06/09 08:25:34;;;;;;;;;;;;;;;;;;5132661;27;19919;-75
2023/06/09 08:28:00;;;;;;;;;;;;;;;;;;5133308;27;19931;-76
2023/06/09 08:30:26;;;;;;;;;;;;;;;;;;5113233;27;19927;-76
2023/06/09 08:32:52;;;;;;;;;;;;;;;;;;5133921;27;20013;-76
2023/06/09 08:35:18;;;;;;;;;;;;;;;;;;5087290;27;19975;-76
2023/06/09 08:37:44;;;;;;;;;;;;;;;;;;5132998;27;19927;-76
2023/06/09 08:40:10;;;;;;;;;;;;;;;;;;5112249;27;19923;-76
2023/06/09 08:42:36;;;;;;;;;;;;;;;;;;5133496;27;19923;-76
2023/06/09 08:45:05;;;;;;;;;;;;;;;;;;5111969;27;20190;-76
2023/06/09 08:47:34;;;;;;;;;;;;;;;;;;5133169;27;20013;-76
2023/06/09 08:50:02;;;;;;;;;;;;;;;;;;5132957;27;19998;-76
2023/06/09 08:52:28;;;;;;;;;;;;;;;;;;5113224;27;19930;-76
2023/06/09 08:54:54;;;;;;;;;;;;;;;;;;5113516;27;20346;-76
2023/06/09 08:57:20;;;;;;;;;;;;;;;;;;5132908;27;20065;-75
2023/06/09 08:59:46;;;;;;;;;;;;;;;;;;5111780;27;19919;-76
2023/06/09 09:02:12;;;;;;;;;;;;;;;;;;5112448;27;20278;-76
2023/06/09 09:04:38;;;;;;;;;;;;;;;;;;5132479;27;20367;-76
2023/06/09 09:07:04;;;;;;;;;;;;;;;;;;5132185;27;19923;-76
2023/06/09 09:09:30;;;;;;;;;;;;;;;;;;5085228;27;19930;-75
2023/06/09 09:11:56;;;;;;;;;;;;;;;;;;5097565;27;20082;-76
2023/06/09 09:14:22;;;;;;;;;;;;;;;;;;5098588;27;19927;-76
2023/06/09 09:16:48;;;;;;;;;;;;;;;;;;5118863;27;19974;-76
2023/06/09 09:19:14;;;;;;;;;;;;;;;;;;5098963;27;19934;-76
2023/06/09 09:21:40;;;;;;;;;;;;;;;;;;5099079;27;20388;-76
2023/06/09 09:24:07;;;;;;;;;;;;;;;;;;5118902;27;19923;-75
2023/06/09 09:26:33;;;;;;;;;;;;;;;;;;5096975;27;19991;-75
2023/06/09 09:28:59;;;;;;;;;;;;;;;;;;5098440;27;20010;-76
2023/06/09 09:31:25;;;;;;;;;;;;;;;;;;5099399;27;19924;-76
2023/06/09 09:33:51;;;;;;;;;;;;;;;;;;5099343;27;20430;-76
2023/06/09 09:36:17;;;;;;;;;;;;;;;;;;5097847;27;20381;-76
2023/06/09 09:38:44;;;;;;;;;;;;;;;;;;5098963;27;21385;-76
2023/06/09 09:41:10;;;;;;;;;;;;;;;;;;5098366;27;19923;-76
2023/06/09 09:43:36;;;;;;;;;;;;;;;;;;5097449;27;19934;-76
2023/06/09 09:46:04;;;;;;;;;;;;;;;;;;5097535;27;19954;-76
2023/06/09 09:48:30;;;;;;;;;;;;;;;;;;5098385;27;19924;-77
2023/06/09 09:50:56;;;;;;;;;;;;;;;;;;5097899;27;19923;-75
2023/06/09 09:53:23;;;;;;;;;;;;;;;;;;5098163;27;20467;-73
2023/06/09 09:55:49;;;;;;;;;;;;;;;;;;5117725;27;19919;-74
2023/06/09 09:58:15;;;;;;;;;;;;;;;;;;5117591;27;19934;-75
2023/06/09 10:00:41;;;;;;;;;;;;;;;;;;5098521;27;20700;-74
2023/06/09 10:03:07;;;;;;;;;;;;;;;;;;5096571;27;20265;-75
2023/06/09 10:05:33;;;;;;;;;;;;;;;;;;5095609;27;19923;-75
2023/06/09 10:07:59;;;;;;;;;;;;;;;;;;5093882;27;20320;-76
2023/06/09 10:10:25;;;;;;;;;;;;;;;;;;5098212;27;19967;-76
2023/06/09 10:12:51;;;;;;;;;;;;;;;;;;5096015;27;19937;-76
2023/06/09 10:15:17;;;;;;;;;;;;;;;;;;5096770;27;19927;-76
2023/06/09 10:17:43;;;;;;;;;;;;;;;;;;5097881;27;19988;-76
2023/06/09 10:20:09;;;;;;;;;;;;;;;;;;5097280;27;19927;-76
2023/06/09 10:22:35;;;;;;;;;;;;;;;;;;5097701;27;19998;-76
2023/06/09 10:25:02;;;;;;;;;;;;;;;;;;5097689;27;19925;-76
2023/06/09 10:27:28;;;;;;;;;;;;;;;;;;5096812;27;20288;-76
2023/06/09 10:29:54;;;;;;;;;;;;;;;;;;5098330;27;19933;-77
2023/06/09 10:32:20;;;;;;;;;;;;;;;;;;5097585;27;20029;-77
2023/06/09 10:34:46;;;;;;;;;;;;;;;;;;5118094;27;19926;-76
2023/06/09 10:37:12;;;;;;;;;;;;;;;;;;5097823;27;20054;-76
2023/06/09 10:39:38;;;;;;;;;;;;;;;;;;5096232;27;19930;-77
2023/06/09 10:42:05;;;;;;;;;;;;;;;;;;5117393;27;19923;-77
2023/06/09 10:44:31;;;;;;;;;;;;;;;;;;5097589;27;19924;-77
2023/06/09 10:46:58;;;;;;;;;;;;;;;;;;5096914;27;19920;-77
2023/06/09 10:49:36;;;;;;;;;;;;;;;;;;5115873;27;19919;-75
2023/06/09 10:52:02;;;;;;;;;;;;;;;;;;5096398;27;19927;-76
2023/06/09 10:54:29;;;;;;;;;;;;;;;;;;5096356;27;19931;-75
2023/06/09 10:56:55;;;;;;;;;;;;;;;;;;5115481;27;20011;-77
2023/06/09 10:59:21;;;;;;;;;;;;;;;;;;5096077;27;19923;-76
2023/06/09 11:01:47;;;;;;;;;;;;;;;;;;5116893;27;20394;-77
2023/06/09 11:04:13;;;;;;;;;;;;;;;;;;5096511;27;20323;-77
2023/06/09 11:06:39;;;;;;;;;;;;;;;;;;5116970;27;20308;-77
2023/06/09 11:09:06;;;;;;;;;;;;;;;;;;5116553;27;19926;-77
2023/06/09 11:11:32;;;;;;;;;;;;;;;;;;5094290;27;19974;-74
2023/06/09 11:13:57;;;;;;;;;;;;;;;;;;5114024;27;20014;-74
2023/06/09 11:16:24;;;;;;;;;;;;;;;;;;5116776;27;19927;-75
2023/06/09 11:18:50;;;;;;;;;;;;;;;;;;5096285;27;19933;-73
2023/06/09 11:21:16;;;;;;;;;;;;;;;;;;5096118;27;19923;-75
2023/06/09 11:23:42;;;;;;;;;;;;;;;;;;5095798;27;19923;-76
2023/06/09 11:26:08;;;;;;;;;;;;;;;;;;5096813;27;19920;-76
2023/06/09 11:28:34;;;;;;;;;;;;;;;;;;5096424;27;19986;-76
2023/06/09 11:31:00;;;;;;;;;;;;;;;;;;5096700;27;19922;-75
2023/06/09 11:33:26;;;;;;;;;;;;;;;;;;5094286;27;19958;-75
2023/06/09 11:35:52;;;;;;;;;;;;;;;;;;5095304;27;20006;-75
2023/06/09 11:38:18;;;;;;;;;;;;;;;;;;5096809;27;19927;-75
2023/06/09 11:40:44;;;;;;;;;;;;;;;;;;5096528;27;19926;-76
2023/06/09 11:43:11;;;;;;;;;;;;;;;;;;5115983;27;20445;-75
2023/06/09 11:45:37;;;;;;;;;;;;;;;;;;5115358;27;19924;-75
2023/06/09 11:48:04;;;;;;;;;;;;;;;;;;5116570;27;20372;-76
2023/06/09 11:50:30;;;;;;;;;;;;;;;;;;5096458;27;19926;-76
2023/06/09 11:52:56;;;;;;;;;;;;;;;;;;5092926;27;19919;-75
2023/06/09 11:55:22;;;;;;;;;;;;;;;;;;5096016;27;20011;-75
2023/06/09 11:57:48;;;;;;;;;;;;;;;;;;5115408;27;19959;-75
2023/06/09 12:00:14;;;;;;;;;;;;;;;;;;5116193;27;20013;-76
2023/06/09 12:02:40;;;;;;;;;;;;;;;;;;5095727;27;19923;-77
2023/06/09 12:05:06;;;;;;;;;;;;;;;;;;5114727;27;19919;-76
2023/06/09 12:07:32;;;;;;;;;;;;;;;;;;5096476;27;20314;-77
2023/06/09 12:09:58;;;;;;;;;;;;;;;;;;5096085;27;19980;-77
2023/06/09 12:12:24;;;;;;;;;;;;;;;;;;5095928;27;19927;-77
2023/06/09 12:14:50;;;;;;;;;;;;;;;;;;5095935;27;20183;-77
2023/06/09 12:17:17;;;;;;;;;;;;;;;;;;5096176;27;19942;-76
2023/06/09 12:19:42;;;;;;;;;;;;;;;;;;5115192;27;20433;-77
2023/06/09 12:22:08;;;;;;;;;;;;;;;;;;5095880;27;19927;-77
2023/06/09 12:24:34;;;;;;;;;;;;;;;;;;5096204;27;20013;-77
2023/06/09 12:27:00;;;;;;;;;;;;;;;;;;5096040;27;19923;-76
2023/06/09 12:29:26;;;;;;;;;;;;;;;;;;5096795;27;19923;-76
2023/06/09 12:31:52;;;;;;;;;;;;;;;;;;5114761;27;19919;-75
2023/06/09 12:34:18;;;;;;;;;;;;;;;;;;5115451;27;19923;-76
2023/06/09 12:36:44;;;;;;;;;;;;;;;;;;5112349;27;20261;-77
2023/06/09 12:39:10;;;;;;;;;;;;;;;;;;5095443;27;19934;-77
2023/06/09 12:41:36;;;;;;;;;;;;;;;;;;5115913;27;20380;-76
2023/06/09 12:44:02;;;;;;;;;;;;;;;;;;5096765;27;19955;-76
2023/06/09 12:46:28;;;;;;;;;;;;;;;;;;5099670;27;19919;-76
2023/06/09 12:48:55;;;;;;;;;;;;;;;;;;5099310;27;20277;-76
2023/06/09 12:51:21;;;;;;;;;;;;;;;;;;5097519;27;19923;-76
2023/06/09 12:53:47;;;;;;;;;;;;;;;;;;5082457;27;20234;-76
2023/06/09 12:56:13;;;;;;;;;;;;;;;;;;5099563;27;20274;-76
2023/06/09 12:58:39;;;;;;;;;;;;;;;;;;5097782;27;19927;-76
2023/06/09 13:01:05;;;;;;;;;;;;;;;;;;5097543;27;19923;-76
2023/06/09 13:03:31;;;;;;;;;;;;;;;;;;5097849;27;20326;-76
2023/06/09 13:05:57;;;;;;;;;;;;;;;;;;5099117;27;20312;-76
2023/06/09 13:08:23;;;;;;;;;;;;;;;;;;5099639;27;20505;-76
2023/06/09 13:10:49;;;;;;;;;;;;;;;;;;5099241;27;19924;-76
2023/06/09 13:13:15;;;;;;;;;;;;;;;;;;5098666;27;20079;-76
2023/06/09 13:15:41;;;;;;;;;;;;;;;;;;5096300;27;19927;-88
2023/06/09 13:18:11;;;;;;;;;;;;;;;;;;5104871;27;20401;-87
2023/06/09 13:20:37;;;;;;;;;;;;;;;;;;5110364;27;19923;-90
2023/06/09 13:23:03;;;;;;;;;;;;;;;;;;5135339;27;19952;-87
2023/06/09 13:25:29;;;;;;;;;;;;;;;;;;5114478;27;19930;-88
2023/06/09 13:27:55;;;;;;;;;;;;;;;;;;5136281;27;19950;-87
2023/06/09 13:30:21;;;;;;;;;;;;;;;;;;5110738;27;20031;-87
2023/06/09 13:32:47;;;;;;;;;;;;;;;;;;5131105;27;19931;-88
2023/06/09 13:35:15;;;;;;;;;;;;;;;;;;5104442;27;19919;-87
2023/06/09 13:37:42;;;;;;;;;;;;;;;;;;5103842;27;20440;-84
2023/06/09 13:40:08;;;;;;;;;;;;;;;;;;5103973;27;20278;-86
2023/06/09 13:42:34;;;;;;;;;;;;;;;;;;5104689;27;20484;-86
2023/06/09 13:45:00;;;;;;;;;;;;;;;;;;5084646;27;19930;-86
2023/06/09 13:47:26;;;;;;;;;;;;;;;;;;5087130;27;20414;-87
2023/06/09 13:49:53;;;;;;;;;;;;;;;;;;5106104;27;19930;-87
2023/06/09 13:52:19;;;;;;;;;;;;;;;;;;5106226;27;19923;-87
2023/06/09 13:54:45;;;;;;;;;;;;;;;;;;5102126;27;19919;-86
2023/06/09 13:57:11;;;;;;;;;;;;;;;;;;5099248;27;19935;-86
2023/06/09 13:59:37;;;;;;;;;;;;;;;;;;5080980;27;20018;-87
2023/06/09 14:02:04;;;;;;;;;;;;;;;;;;5118730;27;20460;-87
2023/06/09 14:04:30;;;;;;;;;;;;;;;;;;5098110;27;19962;-88
2023/06/09 14:06:56;;;;;;;;;;;;;;;;;;5099144;27;20386;-88
2023/06/09 14:09:22;;;;;;;;;;;;;;;;;;5100120;27;19919;-89
2023/06/09 14:11:48;;;;;;;;;;;;;;;;;;5099425;27;20426;-88
2023/06/09 14:14:14;;;;;;;;;;;;;;;;;;5081990;27;20266;-88
2023/06/09 14:16:42;;;;;;;;;;;;;;;;;;5098993;27;19923;-88
2023/06/09 14:19:08;;;;;;;;;;;;;;;;;;5101093;27;19927;-88
2023/06/09 14:21:34;;;;;;;;;;;;;;;;;;5100867;27;19927;-88
2023/06/09 14:24:00;;;;;;;;;;;;;;;;;;5103718;27;20304;-91
2023/06/09 14:26:25;;;;;;;;;;;;;;;;;;5104908;27;20373;-91
2023/06/09 14:28:51;;;;;;;;;;;;;;;;;;5103491;27;20681;-92
2023/06/09 14:31:17;;;;;;;;;;;;;;;;;;5102356;27;20327;-88
2023/06/09 14:33:43;;;;;;;;;;;;;;;;;;5099840;27;20022;-88
2023/06/09 14:36:10;;;;;;;;;;;;;;;;;;5098865;27;20358;-88
2023/06/09 14:38:36;;;;;;;;;;;;;;;;;;5120017;27;20335;-91
2023/06/09 14:41:02;;;;;;;;;;;;;;;;;;5104421;27;19923;-89
2023/06/09 14:43:27;;;;;;;;;;;;;;;;;;5109159;27;21183;-90
2023/06/09 14:45:53;;;;;;;;;;;;;;;;;;5099365;27;19927;-83
2023/06/09 14:48:19;;;;;;;;;;;;;;;;;;5118533;27;19931;-86
2023/06/09 14:50:46;;;;;;;;;;;;;;;;;;5115348;27;19931;-85
2023/06/09 14:53:12;;;;;;;;;;;;;;;;;;5122074;27;19926;-88
2023/06/09 14:55:38;;;;;;;;;;;;;;;;;;5126753;27;19927;-85
2023/06/09 14:58:04;;;;;;;;;;;;;;;;;;5097755;27;19992;-85
2023/06/09 15:00:30;;;;;;;;;;;;;;;;;;5098071;27;19919;-86
2023/06/09 15:02:56;;;;;;;;;;;;;;;;;;5097968;27;20003;-85
2023/06/09 15:05:24;;;;;;;;;;;;;;;;;;5098234;27;19919;-86
2023/06/09 15:07:54;;;;;;;;;;;;;;;;;;5098116;27;19955;-86
2023/06/09 15:10:20;;;;;;;;;;;;;;;;;;5098883;27;20568;-86
2023/06/09 15:12:46;;;;;;;;;;;;;;;;;;5117701;27;19919;-86
2023/06/09 15:15:12;;;;;;;;;;;;;;;;;;5118189;27;19927;-86
2023/06/09 15:17:38;;;;;;;;;;;;;;;;;;5098674;27;19927;-86
2023/06/09 15:20:04;;;;;;;;;;;;;;;;;;5098661;27;19925;-87
2023/06/09 15:22:30;;;;;;;;;;;;;;;;;;5098120;27;20309;-87
2023/06/09 15:24:56;;;;;;;;;;;;;;;;;;5099042;27;19919;-87
2023/06/09 15:27:22;;;;;;;;;;;;;;;;;;5098615;27;19931;-86
2023/06/09 15:29:49;;;;;;;;;;;;;;;;;;5099027;27;20021;-86
2023/06/09 15:32:16;;;;;;;;;;;;;;;;;;5103564;27;20311;-87
2023/06/09 15:34:42;;;;;;;;;;;;;;;;;;5104155;27;21673;-86
2023/06/09 15:37:08;;;;;;;;;;;;;;;;;;5097793;27;19948;-88
2023/06/09 15:39:34;;;;;;;;;;;;;;;;;;5098597;27;19928;-87
2023/06/09 15:41:59;;;;;;;;;;;;;;;;;;5100645;27;19919;-87
2023/06/09 15:44:26;;;;;;;;;;;;;;;;;;5099098;27;19930;-87
2023/06/09 15:46:52;;;;;;;;;;;;;;;;;;5097729;27;19924;-86
2023/06/09 15:49:18;;;;;;;;;;;;;;;;;;5082746;27;19919;-88
2023/06/09 15:51:44;;;;;;;;;;;;;;;;;;5097414;27;19952;-87
2023/06/09 15:54:10;;;;;;;;;;;;;;;;;;5118026;27;20369;-87
2023/06/09 15:56:36;;;;;;;;;;;;;;;;;;5116365;27;20097;-82
2023/06/09 15:59:02;;;;;;;;;;;;;;;;;;5114491;27;19927;-79
2023/06/09 16:01:28;;;;;;;;;;;;;;;;;;5112731;27;20296;-93
2023/06/09 16:03:54;;;;;;;;;;;;;;;;;;5112342;27;20006;-93
2023/06/09 16:06:20;;;;;;;;;;;;;;;;;;5096508;27;19923;-91
2023/06/09 16:08:46;;;;;;;;;;;;;;;;;;5095063;27;19949;-86
2023/06/09 16:11:12;;;;;;;;;;;;;;;;;;5097521;27;19919;-89
2023/06/09 16:13:38;;;;;;;;;;;;;;;;;;5098667;27;19930;-91
2023/06/09 16:16:04;;;;;;;;;;;;;;;;;;5099558;27;19923;-91
2023/06/09 16:18:30;;;;;;;;;;;;;;;;;;5101695;27;19976;-90
2023/06/09 16:20:55;;;;;;;;;;;;;;;;;;5104220;27;19927;-89
2023/06/09 16:23:21;;;;;;;;;;;;;;;;;;5104273;27;19919;-87
2023/06/09 16:25:47;;;;;;;;;;;;;;;;;;5103377;27;19969;-90
2023/06/09 16:28:13;;;;;;;;;;;;;;;;;;5110728;27;20365;-89
2023/06/09 16:30:39;;;;;;;;;;;;;;;;;;5109050;27;20429;-89
2023/06/09 16:33:05;;;;;;;;;;;;;;;;;;5112212;27;19987;-89
2023/06/09 16:35:31;;;;;;;;;;;;;;;;;;5111143;27;20187;-90
2023/06/09 16:37:57;;;;;;;;;;;;;;;;;;5107979;27;19927;-90
2023/06/09 16:40:28;;;;;;;;;;;;;;;;;;5084397;27;20009;-89
2023/06/09 16:42:54;;;;;;;;;;;;;;;;;;5084591;27;19973;-88
2023/06/09 16:45:20;;;;;;;;;;;;;;;;;;5123636;27;19991;-85
2023/06/09 16:47:46;;;;;;;;;;;;;;;;;;5102707;27;19931;-88
